createdAt,value
2022-12-12T00:01:41.847Z,-1.36
2022-12-12T00:04:12.437Z,-1.33
2022-12-12T00:06:42.901Z,-1.32
2022-12-12T00:09:17.482Z,-1.33
2022-12-12T00:11:50.864Z,-1.35
2022-12-12T00:14:22.060Z,-1.36
2022-12-12T00:16:55.887Z,-1.36
2022-12-12T00:19:26.367Z,-1.35
2022-12-12T00:21:58.234Z,-1.33
2022-12-12T00:24:28.745Z,-1.34
2022-12-12T00:27:01.895Z,-1.32
2022-12-12T00:29:37.706Z,-1.33
2022-12-12T00:32:08.245Z,-1.34
2022-12-12T00:34:38.447Z,-1.31
2022-12-12T00:37:09.005Z,-1.28
2022-12-12T00:39:39.665Z,-1.25
2022-12-12T00:42:20.747Z,-1.22
2022-12-12T00:44:51.285Z,-1.20
2022-12-12T00:47:21.495Z,-1.21
2022-12-12T00:49:51.964Z,-1.22
2022-12-12T00:52:24.237Z,-1.21
2022-12-12T00:54:54.578Z,-1.19
2022-12-12T00:57:26.795Z,-1.17
2022-12-12T00:59:57.278Z,-1.15
2022-12-12T01:02:30.637Z,-1.14
2022-12-12T01:05:06.930Z,-1.14
2022-12-12T01:07:37.486Z,-1.12
2022-12-12T01:10:08.817Z,-1.11
2022-12-12T01:12:43.697Z,-1.08
2022-12-12T01:15:14.830Z,-1.06
2022-12-12T01:17:46.576Z,-1.04
2022-12-12T01:20:21.046Z,-1.02
2022-12-12T01:22:51.820Z,-1.00
2022-12-12T01:25:28.199Z,-0.99
2022-12-12T01:28:00.337Z,-0.99
2022-12-12T01:30:31.415Z,-0.98
2022-12-12T01:33:02.057Z,-0.94
2022-12-12T01:35:34.149Z,-0.93
2022-12-12T01:38:07.965Z,-0.90
2022-12-12T01:40:43.031Z,-0.87
2022-12-12T01:43:18.036Z,-0.87
2022-12-12T01:46:01.290Z,-0.86
2022-12-12T01:48:41.615Z,-0.85
2022-12-12T01:51:18.972Z,-0.79
2022-12-12T01:53:54.775Z,-0.76
2022-12-12T01:56:26.004Z,-0.72
2022-12-12T01:58:58.047Z,-0.70
2022-12-12T02:01:35.658Z,-0.68
2022-12-12T02:04:06.244Z,-0.66
2022-12-12T02:06:40.937Z,-0.65
2022-12-12T02:09:17.165Z,-0.64
2022-12-12T02:11:51.605Z,-0.62
2022-12-12T02:14:35.565Z,-0.59
2022-12-12T02:17:21.136Z,-0.57
2022-12-12T02:19:58.625Z,-0.56
2022-12-12T02:22:59.306Z,-0.55
2022-12-12T02:25:54.474Z,-0.57
2022-12-12T02:29:09.764Z,-0.55
2022-12-12T02:31:53.814Z,-0.53
2022-12-12T02:34:38.465Z,-0.50
2022-12-12T02:37:42.883Z,-0.49
2022-12-12T02:40:16.185Z,-0.49
2022-12-12T02:42:56.740Z,-0.49
2022-12-12T02:45:42.355Z,-0.45
2022-12-12T02:48:37.182Z,-0.40
2022-12-12T02:51:15.598Z,-0.37
2022-12-12T02:53:47.265Z,-0.36
2022-12-12T02:56:45.698Z,-0.35
2022-12-12T02:59:32.562Z,-0.33
2022-12-12T03:02:17.401Z,-0.27
2022-12-12T03:05:36.057Z,-0.21
2022-12-12T03:08:46.194Z,-0.17
2022-12-12T03:11:17.815Z,-0.15
2022-12-12T03:13:49.360Z,-0.15
2022-12-12T03:17:11.176Z,-0.18
2022-12-12T03:20:07.801Z,-0.14
2022-12-12T03:22:55.055Z,-0.11
2022-12-12T03:25:44.409Z,-0.09
2022-12-12T03:28:43.970Z,-0.08
2022-12-12T03:31:18.150Z,-0.07
2022-12-12T03:33:59.050Z,-0.05
2022-12-12T03:37:02.565Z,-0.01
2022-12-12T03:39:43.864Z,0.01
2022-12-12T03:42:28.707Z,0.03
2022-12-12T03:45:15.915Z,0.05
2022-12-12T03:48:06.697Z,0.06
2022-12-12T03:50:47.272Z,0.09
2022-12-12T03:53:22.848Z,0.11
2022-12-12T03:56:25.875Z,0.13
2022-12-12T03:59:07.046Z,0.17
2022-12-12T04:01:50.664Z,0.19
2022-12-12T04:04:41.822Z,0.20
2022-12-12T04:07:22.655Z,0.21
2022-12-12T04:10:10.075Z,0.25
2022-12-12T04:13:14.069Z,0.27
2022-12-12T04:16:05.063Z,0.28
2022-12-12T04:18:51.147Z,0.29
2022-12-12T04:22:19.698Z,0.32
2022-12-12T04:25:01.319Z,0.36
2022-12-12T04:27:51.098Z,0.39
2022-12-12T04:30:22.787Z,0.42
2022-12-12T04:33:15.215Z,0.43
2022-12-12T04:35:52.784Z,0.44
2022-12-12T04:38:27.435Z,0.47
2022-12-12T04:41:01.253Z,0.49
2022-12-12T04:43:43.836Z,0.51
2022-12-12T04:46:22.357Z,0.52
2022-12-12T04:48:56.648Z,0.53
2022-12-12T04:51:36.990Z,0.56
2022-12-12T04:54:57.287Z,0.59
2022-12-12T04:57:41.377Z,0.63
2022-12-12T05:00:16.294Z,0.64
2022-12-12T05:03:10.143Z,0.63
2022-12-12T05:05:49.517Z,0.63
2022-12-12T05:08:39.863Z,0.65
2022-12-12T05:11:11.227Z,0.66
2022-12-12T05:13:47.387Z,0.67
2022-12-12T05:16:34.931Z,0.67
2022-12-12T05:19:08.612Z,0.69
2022-12-12T05:21:50.464Z,0.73
2022-12-12T05:24:23.056Z,0.75
2022-12-12T05:26:53.447Z,0.76
2022-12-12T05:29:24.284Z,0.76
2022-12-12T05:31:56.565Z,0.75
2022-12-12T05:34:28.226Z,0.76
2022-12-12T05:36:58.895Z,0.77
2022-12-12T05:39:29.443Z,0.80
2022-12-12T05:42:05.113Z,0.80
2022-12-12T05:44:35.720Z,0.79
2022-12-12T05:47:07.324Z,0.78
2022-12-12T05:49:41.151Z,0.79
2022-12-12T05:52:14.064Z,0.80
2022-12-12T05:54:44.557Z,0.79
2022-12-12T05:57:14.864Z,0.78
2022-12-12T05:59:45.515Z,0.76
2022-12-12T06:02:19.825Z,0.75
2022-12-12T06:04:57.043Z,0.75
2022-12-12T06:07:27.646Z,0.75
2022-12-12T06:09:59.527Z,0.76
2022-12-12T06:12:33.542Z,0.74
2022-12-12T06:15:07.859Z,0.73
2022-12-12T06:17:45.609Z,0.71
2022-12-12T06:20:16.026Z,0.70
2022-12-12T06:22:52.033Z,0.71
2022-12-12T06:25:30.030Z,0.70
2022-12-12T06:28:00.503Z,0.69
2022-12-12T06:30:30.984Z,0.68
2022-12-12T06:33:01.625Z,0.68
2022-12-12T06:35:32.406Z,0.70
2022-12-12T06:38:02.969Z,0.69
2022-12-12T06:40:33.575Z,0.68
2022-12-12T06:43:04.159Z,0.66
2022-12-12T06:45:34.540Z,0.65
2022-12-12T06:48:07.748Z,0.65
2022-12-12T06:50:44.892Z,0.66
2022-12-12T06:53:15.214Z,0.66
2022-12-12T06:55:46.985Z,0.66
2022-12-12T06:58:18.507Z,0.65
2022-12-12T07:00:56.007Z,0.64
2022-12-12T07:03:29.735Z,0.65
2022-12-12T07:06:03.459Z,0.67
2022-12-12T07:08:43.421Z,0.69
2022-12-12T07:11:34.994Z,0.70
2022-12-12T07:14:10.471Z,0.69
2022-12-12T07:16:42.434Z,0.69
2022-12-12T07:19:12.609Z,0.72
2022-12-12T07:21:43.260Z,0.73
2022-12-12T07:24:18.195Z,0.74
2022-12-12T07:26:55.855Z,0.76
2022-12-12T07:29:28.026Z,0.76
2022-12-12T07:32:02.906Z,0.78
2022-12-12T07:34:33.583Z,0.81
2022-12-12T07:37:05.633Z,0.83
2022-12-12T07:39:37.620Z,0.84
2022-12-12T07:42:08.322Z,0.85
2022-12-12T07:44:44.714Z,0.84
2022-12-12T07:47:16.389Z,0.83
2022-12-12T07:49:46.813Z,0.85
2022-12-12T07:52:18.472Z,0.87
2022-12-12T07:54:54.056Z,0.87
2022-12-12T07:57:24.676Z,0.87
2022-12-12T07:59:55.329Z,0.86
2022-12-12T08:02:30.885Z,0.83
2022-12-12T08:05:04.688Z,0.82
2022-12-12T08:07:39.611Z,0.82
2022-12-12T08:10:10.795Z,0.80
2022-12-12T08:12:41.712Z,0.79
2022-12-12T08:15:18.514Z,0.78
2022-12-12T08:17:52.318Z,0.76
2022-12-12T08:20:23.755Z,0.74
2022-12-12T08:22:55.541Z,0.74
2022-12-12T08:25:26.367Z,0.74
2022-12-12T08:27:59.825Z,0.73
2022-12-12T08:30:33.226Z,0.74
2022-12-12T08:33:07.965Z,0.74
2022-12-12T08:35:38.816Z,0.74
2022-12-12T08:38:09.001Z,0.71
2022-12-12T08:40:39.724Z,0.72
2022-12-12T08:43:12.431Z,0.72
2022-12-12T08:45:42.901Z,0.73
2022-12-12T08:48:18.327Z,0.74
2022-12-12T08:50:56.794Z,0.73
2022-12-12T08:53:27.865Z,0.71
2022-12-12T08:56:00.791Z,0.73
2022-12-12T08:58:37.112Z,0.76
2022-12-12T09:01:19.514Z,0.78
2022-12-12T09:03:53.334Z,0.78
2022-12-12T09:06:25.037Z,0.76
2022-12-12T09:08:56.835Z,0.76
2022-12-12T09:11:30.873Z,0.78
2022-12-12T09:14:01.744Z,0.82
2022-12-12T09:16:35.929Z,0.83
2022-12-12T09:19:08.178Z,0.84
2022-12-12T09:21:38.729Z,0.83
2022-12-12T09:24:09.727Z,0.82
2022-12-12T09:26:40.285Z,0.82
2022-12-12T09:29:13.257Z,0.84
2022-12-12T09:31:50.273Z,0.85
2022-12-12T09:34:23.487Z,0.85
2022-12-12T09:36:53.922Z,0.85
2022-12-12T09:39:26.527Z,0.85
2022-12-12T09:41:57.304Z,0.87
2022-12-12T09:44:28.429Z,0.87
2022-12-12T09:47:05.743Z,0.86
2022-12-12T09:49:55.921Z,0.86
2022-12-12T09:52:38.905Z,0.87
2022-12-12T09:55:42.438Z,0.87
2022-12-12T09:58:32.420Z,0.90
2022-12-12T10:01:12.920Z,0.92
2022-12-12T10:03:56.079Z,0.94
2022-12-12T10:06:56.841Z,0.94
2022-12-12T10:09:27.215Z,0.92
2022-12-12T10:12:02.151Z,0.94
2022-12-12T10:14:44.396Z,0.96
2022-12-12T10:17:24.323Z,0.97
2022-12-12T10:20:15.859Z,0.97
2022-12-12T10:23:21.380Z,0.98
2022-12-12T10:26:09.212Z,1.02
2022-12-12T10:28:40.402Z,1.06
2022-12-12T10:31:35.759Z,1.04
2022-12-12T10:34:30.858Z,1.03
2022-12-12T10:37:22.303Z,1.02
2022-12-12T10:40:20.761Z,1.03
2022-12-12T10:43:13.390Z,1.06
2022-12-12T10:46:22.594Z,1.09
2022-12-12T10:48:54.188Z,1.11
2022-12-12T10:51:31.675Z,1.12
2022-12-12T10:54:02.101Z,1.15
2022-12-12T10:56:35.529Z,1.16
2022-12-12T10:59:24.447Z,1.17
2022-12-12T11:02:10.871Z,1.17
2022-12-12T11:04:41.717Z,1.17
2022-12-12T11:07:23.477Z,1.19
2022-12-12T11:09:59.018Z,1.21
2022-12-12T11:12:38.471Z,1.19
2022-12-12T11:15:18.073Z,1.16
2022-12-12T11:17:48.538Z,1.13
2022-12-12T11:20:23.777Z,1.14
2022-12-12T11:22:57.419Z,1.14
2022-12-12T11:25:35.308Z,1.15
2022-12-12T11:28:06.995Z,1.13
2022-12-12T11:30:45.237Z,1.11
2022-12-12T11:33:24.452Z,1.11
2022-12-12T11:36:01.751Z,1.10
2022-12-12T11:38:40.450Z,1.11
2022-12-12T11:41:14.053Z,1.10
2022-12-12T11:43:51.668Z,1.08
2022-12-12T11:46:34.069Z,1.09
2022-12-12T11:49:08.850Z,1.13
2022-12-12T11:51:43.628Z,1.16
2022-12-12T11:54:33.951Z,1.17
2022-12-12T11:57:15.610Z,1.19
2022-12-12T12:00:08.046Z,1.19
2022-12-12T12:02:50.478Z,1.19
2022-12-12T12:05:39.722Z,1.19
2022-12-12T12:08:56.485Z,1.19
2022-12-12T12:11:52.548Z,1.18
2022-12-12T12:14:52.288Z,1.20
2022-12-12T12:17:49.156Z,1.24
2022-12-12T12:20:33.276Z,1.26
2022-12-12T12:23:14.635Z,1.26
2022-12-12T12:26:14.996Z,1.26
2022-12-12T12:28:57.544Z,1.29
2022-12-12T12:31:41.169Z,1.31
2022-12-12T12:34:31.543Z,1.31
2022-12-12T12:37:18.202Z,1.30
2022-12-12T12:39:51.331Z,1.30
2022-12-12T12:42:49.791Z,1.30
2022-12-12T12:45:56.426Z,1.30
2022-12-12T12:48:32.364Z,1.30
2022-12-12T12:51:03.011Z,1.29
2022-12-12T12:53:52.552Z,1.29
2022-12-12T12:56:38.586Z,1.30
2022-12-12T12:59:23.517Z,1.32
2022-12-12T13:02:06.190Z,1.33
2022-12-12T13:05:11.779Z,1.32
2022-12-12T13:08:04.773Z,1.34
2022-12-12T13:10:37.510Z,1.36
2022-12-12T13:13:39.390Z,1.37
2022-12-12T13:16:18.249Z,1.38
2022-12-12T13:18:52.362Z,1.38
2022-12-12T13:21:35.125Z,1.39
2022-12-12T13:24:11.618Z,1.41
2022-12-12T13:26:59.005Z,1.43
2022-12-12T13:29:38.234Z,1.44
2022-12-12T13:32:36.017Z,1.45
2022-12-12T13:35:12.727Z,1.44
2022-12-12T13:37:59.315Z,1.46
2022-12-12T13:40:38.070Z,1.46
2022-12-12T13:43:26.792Z,1.45
2022-12-12T13:45:57.782Z,1.43
2022-12-12T13:48:28.688Z,1.44
2022-12-12T13:51:36.297Z,1.45
2022-12-12T13:54:13.147Z,1.45
2022-12-12T13:56:45.615Z,1.44
2022-12-12T13:59:25.689Z,1.42
2022-12-12T14:02:04.690Z,1.43
2022-12-12T14:04:41.481Z,1.43
2022-12-12T14:07:19.907Z,1.43
2022-12-12T14:09:54.497Z,1.44
2022-12-12T14:12:33.599Z,1.44
2022-12-12T14:15:33.025Z,1.45
2022-12-12T14:18:04.787Z,1.47
2022-12-12T14:20:41.600Z,1.47
2022-12-12T14:23:28.020Z,1.49
2022-12-12T14:26:00.493Z,1.50
2022-12-12T14:28:35.263Z,1.52
2022-12-12T14:31:07.168Z,1.54
2022-12-12T14:33:51.057Z,1.55
2022-12-12T14:36:40.649Z,1.55
2022-12-12T14:39:30.017Z,1.55
2022-12-12T14:42:09.386Z,1.54
2022-12-12T14:44:50.665Z,1.54
2022-12-12T14:47:21.643Z,1.53
2022-12-12T14:50:10.669Z,1.51
2022-12-12T14:52:46.509Z,1.49
2022-12-12T14:55:19.636Z,1.45
2022-12-12T14:57:50.814Z,1.46
2022-12-12T15:00:22.707Z,1.49
2022-12-12T15:02:54.836Z,1.51
2022-12-12T15:05:28.885Z,1.51
2022-12-12T15:08:10.547Z,1.52
2022-12-12T15:10:41.077Z,1.53
2022-12-12T15:13:21.577Z,1.52
2022-12-12T15:15:54.124Z,1.52
2022-12-12T15:18:26.211Z,1.53
2022-12-12T15:20:58.983Z,1.55
2022-12-12T15:23:30.144Z,1.58
2022-12-12T15:26:00.548Z,1.59
2022-12-12T15:28:36.002Z,1.59
2022-12-12T15:31:19.513Z,1.56
2022-12-12T15:33:51.804Z,1.54
2022-12-12T15:36:33.571Z,1.55
2022-12-12T15:39:17.842Z,1.55
2022-12-12T15:41:51.438Z,1.53
2022-12-12T15:44:23.371Z,1.50
2022-12-12T15:46:54.274Z,1.46
2022-12-12T15:49:52.157Z,1.44
2022-12-12T15:52:32.531Z,1.42
2022-12-12T15:55:06.882Z,1.40
2022-12-12T15:57:51.306Z,1.37
2022-12-12T16:00:38.850Z,1.36
2022-12-12T16:03:29.589Z,1.35
2022-12-12T16:06:18.249Z,1.37
2022-12-12T16:09:13.790Z,1.39
2022-12-12T16:11:53.470Z,1.38
2022-12-12T16:14:43.337Z,1.38
2022-12-12T16:17:25.028Z,1.41
2022-12-12T16:20:03.956Z,1.43
2022-12-12T16:22:52.687Z,1.44
2022-12-12T16:25:33.207Z,1.45
2022-12-12T16:28:10.133Z,1.44
2022-12-12T16:30:45.587Z,1.45
2022-12-12T16:33:48.753Z,1.45
2022-12-12T16:36:21.628Z,1.43
2022-12-12T16:38:52.088Z,1.40
2022-12-12T16:41:23.295Z,1.37
2022-12-12T16:43:53.810Z,1.37
2022-12-12T16:46:29.926Z,1.36
2022-12-12T16:49:05.114Z,1.35
2022-12-12T16:51:38.304Z,1.32
2022-12-12T16:54:15.569Z,1.28
2022-12-12T16:56:52.793Z,1.26
2022-12-12T16:59:24.570Z,1.26
2022-12-12T17:01:59.695Z,1.24
2022-12-12T17:04:32.249Z,1.22
2022-12-12T17:07:08.396Z,1.22
2022-12-12T17:09:39.213Z,1.20
2022-12-12T17:12:15.875Z,1.20
2022-12-12T17:14:54.397Z,1.23
2022-12-12T17:17:25.614Z,1.21
2022-12-12T17:19:56.334Z,1.17
2022-12-12T17:22:30.590Z,1.14
2022-12-12T17:25:01.062Z,1.11
2022-12-12T17:27:31.623Z,1.10
2022-12-12T17:30:06.098Z,1.08
2022-12-12T17:32:38.513Z,1.08
2022-12-12T17:35:11.684Z,1.07
2022-12-12T17:37:49.698Z,1.05
2022-12-12T17:40:21.322Z,1.01
2022-12-12T17:42:52.594Z,0.98
2022-12-12T17:45:23.909Z,0.96
2022-12-12T17:48:00.916Z,0.94
2022-12-12T17:50:37.108Z,0.90
2022-12-12T17:53:17.025Z,0.89
2022-12-12T17:56:18.209Z,0.88
2022-12-12T17:58:51.609Z,0.85
2022-12-12T18:01:31.981Z,0.82
2022-12-12T18:04:07.408Z,0.80
2022-12-12T18:06:38.214Z,0.81
2022-12-12T18:09:09.095Z,0.81
2022-12-12T18:11:44.410Z,0.84
2022-12-12T18:14:20.902Z,0.86
2022-12-12T18:16:53.520Z,0.85
2022-12-12T18:19:30.358Z,0.90
2022-12-12T18:22:02.353Z,0.94
2022-12-12T18:24:37.340Z,0.98
2022-12-12T18:27:11.423Z,1.00
2022-12-12T18:29:43.093Z,1.02
2022-12-12T18:32:19.672Z,1.00
2022-12-12T18:34:52.966Z,0.97
2022-12-12T18:37:24.944Z,0.92
2022-12-12T18:39:58.174Z,0.88
2022-12-12T18:42:37.307Z,0.85
2022-12-12T18:45:12.740Z,0.85
2022-12-12T18:47:50.261Z,0.85
2022-12-12T18:50:24.384Z,0.87
2022-12-12T18:52:58.568Z,0.86
2022-12-12T18:55:31.534Z,0.86
2022-12-12T18:58:05.194Z,0.83
2022-12-12T19:00:43.315Z,0.81
2022-12-12T19:03:18.266Z,0.80
2022-12-12T19:05:50.992Z,0.79
2022-12-12T19:08:28.643Z,0.77
2022-12-12T19:11:04.294Z,0.74
2022-12-12T19:13:45.558Z,0.69
2022-12-12T19:16:23.688Z,0.64
2022-12-12T19:19:02.200Z,0.60
2022-12-12T19:21:35.857Z,0.58
2022-12-12T19:24:13.178Z,0.57
2022-12-12T19:26:52.146Z,0.54
2022-12-12T19:29:30.939Z,0.50
2022-12-12T19:32:06.226Z,0.49
2022-12-12T19:34:42.984Z,0.47
2022-12-12T19:37:18.233Z,0.44
2022-12-12T19:39:52.444Z,0.39
2022-12-12T19:42:25.068Z,0.36
2022-12-12T19:45:02.381Z,0.36
2022-12-12T19:47:37.976Z,0.36
2022-12-12T19:50:19.236Z,0.37
2022-12-12T19:52:51.797Z,0.38
2022-12-12T19:55:28.687Z,0.40
2022-12-12T19:58:01.459Z,0.41
2022-12-12T20:00:35.354Z,0.41
2022-12-12T20:03:11.917Z,0.42
2022-12-12T20:05:45.888Z,0.45
2022-12-12T20:08:21.828Z,0.47
2022-12-12T20:10:57.965Z,0.48
2022-12-12T20:13:29.789Z,0.48
2022-12-12T20:16:16.360Z,0.45
2022-12-12T20:18:50.057Z,0.48
2022-12-12T20:21:58.966Z,0.49
2022-12-12T20:24:21.077Z,0.49
2022-12-12T20:26:56.739Z,0.48
2022-12-12T20:29:34.121Z,0.45
2022-12-12T20:32:08.026Z,0.40
2022-12-12T20:34:41.028Z,0.38
2022-12-12T20:37:16.728Z,0.37
2022-12-12T20:39:53.575Z,0.35
2022-12-12T20:42:27.877Z,0.33
2022-12-12T20:45:01.716Z,0.31
2022-12-12T20:47:35.207Z,0.28
2022-12-12T20:50:10.376Z,0.23
2022-12-12T20:52:42.389Z,0.22
2022-12-12T20:55:14.181Z,0.22
2022-12-12T20:58:00.562Z,0.20
2022-12-12T21:00:32.017Z,0.18
2022-12-12T21:03:03.798Z,0.14
2022-12-12T21:05:37.777Z,0.11
2022-12-12T21:08:09.476Z,0.07
2022-12-12T21:10:40.426Z,0.02
2022-12-12T21:13:15.150Z,0.00
2022-12-12T21:15:46.577Z,0.00
2022-12-12T21:18:22.539Z,-0.02
2022-12-12T21:20:54.157Z,-0.04
2022-12-12T21:23:25.323Z,-0.07
2022-12-12T21:25:56.006Z,-0.09
2022-12-12T21:28:26.687Z,-0.14
2022-12-12T21:30:58.329Z,-0.18
2022-12-12T21:33:30.100Z,-0.23
2022-12-12T21:36:09.834Z,-0.25
2022-12-12T21:38:41.735Z,-0.23
2022-12-12T21:41:17.536Z,-0.25
2022-12-12T21:43:54.541Z,-0.26
2022-12-12T21:46:27.695Z,-0.28
2022-12-12T21:49:16.485Z,-0.31
2022-12-12T21:51:49.735Z,-0.35
2022-12-12T21:54:20.187Z,-0.39
2022-12-12T21:56:53.645Z,-0.43
2022-12-12T21:59:27.168Z,-0.43
2022-12-12T22:02:09.319Z,-0.43
2022-12-12T22:04:41.337Z,-0.43
2022-12-12T22:07:15.574Z,-0.44
2022-12-12T22:09:57.395Z,-0.45
2022-12-12T22:12:36.108Z,-0.47
2022-12-12T22:15:07.054Z,-0.50
2022-12-12T22:17:37.433Z,-0.54
2022-12-12T22:20:08.019Z,-0.56
2022-12-12T22:22:39.529Z,-0.55
2022-12-12T22:25:10.068Z,-0.54
2022-12-12T22:27:40.501Z,-0.51
2022-12-12T22:30:14.177Z,-0.50
2022-12-12T22:32:47.088Z,-0.51
2022-12-12T22:35:17.581Z,-0.52
2022-12-12T22:37:50.907Z,-0.54
2022-12-12T22:40:25.417Z,-0.56
2022-12-12T22:42:57.208Z,-0.55
2022-12-12T22:45:27.714Z,-0.56
2022-12-12T22:47:58.205Z,-0.57
2022-12-12T22:50:28.962Z,-0.59
2022-12-12T22:52:59.545Z,-0.61
2022-12-12T22:55:36.666Z,-0.63
2022-12-12T22:58:08.698Z,-0.66
2022-12-12T23:00:39.106Z,-0.69
2022-12-12T23:03:13.437Z,-0.72
2022-12-12T23:05:46.213Z,-0.73
2022-12-12T23:08:17.944Z,-0.72
2022-12-12T23:10:48.495Z,-0.67
2022-12-12T23:13:19.076Z,-0.64
2022-12-12T23:15:53.473Z,-0.63
2022-12-12T23:18:24.215Z,-0.63
2022-12-12T23:20:55.038Z,-0.64
2022-12-12T23:23:25.873Z,-0.67
2022-12-12T23:25:56.837Z,-0.71
2022-12-12T23:28:27.818Z,-0.74
2022-12-12T23:31:01.934Z,-0.78
2022-12-12T23:33:32.379Z,-0.81
2022-12-12T23:36:03.126Z,-0.79
2022-12-12T23:38:36.527Z,-0.79
2022-12-12T23:41:19.667Z,-0.77
2022-12-12T23:43:54.036Z,-0.76
2022-12-12T23:46:32.839Z,-0.77
2022-12-12T23:49:10.138Z,-0.77
2022-12-12T23:51:50.257Z,-0.80
2022-12-12T23:54:24.241Z,-0.83
2022-12-12T23:56:56.999Z,-0.86
2022-12-12T23:59:28.140Z,-0.88
